createdAt,value
2024-01-22T00:00:15.563Z,100330.75
2024-01-22T00:02:43.315Z,100312.78
2024-01-22T00:05:13.368Z,100311.69
2024-01-22T00:07:40.587Z,100342.28
2024-01-22T00:10:08.303Z,100339.75
2024-01-22T00:12:36.117Z,100313.00
2024-01-22T00:15:03.555Z,100334.81
2024-01-22T00:17:31.890Z,100360.50
2024-01-22T00:19:59.226Z,100334.09
2024-01-22T00:22:26.521Z,100328.38
2024-01-22T00:24:53.678Z,100330.22
2024-01-22T00:27:21.016Z,100304.28
2024-01-22T00:29:48.501Z,100298.84
2024-01-22T00:32:23.603Z,100324.41
2024-01-22T00:34:51.106Z,100297.31
2024-01-22T00:37:18.442Z,100294.63
2024-01-22T00:39:45.628Z,100312.22
2024-01-22T00:42:13.678Z,100326.59
2024-01-22T00:44:42.846Z,100323.97
2024-01-22T00:47:10.145Z,100335.28
2024-01-22T00:49:37.513Z,100342.25
2024-01-22T00:52:05.171Z,100340.16
2024-01-22T00:54:32.611Z,100344.59
2024-01-22T00:57:00.291Z,100319.66
2024-01-22T00:59:27.754Z,100338.09
2024-01-22T01:01:54.988Z,100321.09
2024-01-22T01:04:22.274Z,100318.31
2024-01-22T01:06:49.644Z,100301.09
2024-01-22T01:09:55.130Z,100308.00
2024-01-22T01:12:22.453Z,100314.09
2024-01-22T01:14:49.924Z,100309.72
2024-01-22T01:17:17.179Z,100327.16
2024-01-22T01:19:44.558Z,100287.59
2024-01-22T01:22:11.813Z,100283.16
2024-01-22T01:24:39.681Z,100302.72
2024-01-22T01:27:07.202Z,100308.38
2024-01-22T01:29:34.886Z,100304.94
2024-01-22T01:32:02.259Z,100337.41
2024-01-22T01:34:29.641Z,100334.56
2024-01-22T01:36:56.984Z,100345.06
2024-01-22T01:39:24.239Z,100351.25
2024-01-22T01:41:51.789Z,100346.84
2024-01-22T01:44:18.999Z,100368.50
2024-01-22T01:46:47.033Z,100365.50
2024-01-22T01:49:14.536Z,100339.72
2024-01-22T01:51:41.945Z,100369.09
2024-01-22T01:54:10.747Z,100366.81
2024-01-22T01:56:39.645Z,100376.81
2024-01-22T01:59:07.308Z,100386.69
2024-01-22T02:01:34.752Z,100362.69
2024-01-22T02:04:02.247Z,100347.94
2024-01-22T02:06:29.584Z,100349.66
2024-01-22T02:09:18.524Z,100372.06
2024-01-22T02:11:45.881Z,100366.81
2024-01-22T02:14:13.144Z,100371.75
2024-01-22T02:16:40.579Z,100345.63
2024-01-22T02:19:08.795Z,100330.44
2024-01-22T02:21:36.051Z,100333.72
2024-01-22T02:24:03.518Z,100336.69
2024-01-22T02:26:31.391Z,100347.03
2024-01-22T02:28:59.390Z,100363.88
2024-01-22T02:31:26.636Z,100357.34
2024-01-22T02:33:54.108Z,100358.38
2024-01-22T02:36:21.450Z,100358.97
2024-01-22T02:38:48.843Z,100376.28
2024-01-22T02:41:16.316Z,100383.00
2024-01-22T02:43:44.198Z,100374.16
2024-01-22T02:46:12.168Z,100378.41
2024-01-22T02:48:39.459Z,100386.38
2024-01-22T02:51:10.440Z,100406.66
2024-01-22T02:53:38.435Z,100381.44
2024-01-22T02:56:06.183Z,100394.28
2024-01-22T02:58:33.501Z,100374.97
2024-01-22T03:01:00.798Z,100386.75
2024-01-22T03:03:28.060Z,100391.31
2024-01-22T03:06:27.578Z,100390.47
2024-01-22T03:09:27.652Z,100378.63
2024-01-22T03:11:55.040Z,100365.72
2024-01-22T03:18:15.815Z,100334.53
2024-01-22T03:20:43.209Z,100326.78
2024-01-22T03:23:10.831Z,100318.31
2024-01-22T03:25:38.218Z,100331.38
2024-01-22T03:28:06.368Z,100343.47
2024-01-22T03:30:33.680Z,100359.25
2024-01-22T03:33:00.985Z,100359.06
2024-01-22T03:35:28.267Z,100364.69
2024-01-22T03:37:55.489Z,100402.97
2024-01-22T03:40:25.275Z,100413.59
2024-01-22T03:42:52.476Z,100415.34
2024-01-22T03:45:20.058Z,100404.03
2024-01-22T03:47:48.091Z,100388.44
2024-01-22T03:50:15.627Z,100410.16
2024-01-22T03:52:42.812Z,100392.91
2024-01-22T03:55:11.439Z,100387.78
2024-01-22T03:57:38.687Z,100416.84
2024-01-22T04:00:06.734Z,100407.72
2024-01-22T04:02:35.222Z,100420.50
2024-01-22T04:05:02.962Z,100426.25
2024-01-22T04:07:30.282Z,100410.19
2024-01-22T04:09:57.534Z,100377.66
2024-01-22T04:12:24.850Z,100400.41
2024-01-22T04:14:52.741Z,100422.72
2024-01-22T04:17:20.051Z,100438.88
2024-01-22T04:19:47.331Z,100439.56
2024-01-22T04:22:15.100Z,100436.75
2024-01-22T04:24:42.302Z,100451.19
2024-01-22T04:27:09.614Z,100439.00
2024-01-22T04:29:37.117Z,100434.91
2024-01-22T04:32:04.602Z,100498.34
2024-01-22T04:34:32.048Z,100448.91
2024-01-22T04:36:59.459Z,100470.56
2024-01-22T04:39:27.154Z,100427.94
2024-01-22T04:41:54.838Z,100451.94
2024-01-22T04:44:22.110Z,100450.38
2024-01-22T04:46:49.265Z,100446.84
2024-01-22T04:49:16.730Z,100447.34
2024-01-22T04:51:44.272Z,100438.88
2024-01-22T04:54:14.756Z,100410.34
2024-01-22T04:56:43.235Z,100420.97
2024-01-22T04:59:10.449Z,100414.00
2024-01-22T05:01:38.117Z,100415.50
2024-01-22T05:04:06.061Z,100424.31
2024-01-22T05:06:33.823Z,100404.41
2024-01-22T05:09:01.192Z,100440.09
2024-01-22T05:11:28.650Z,100437.47
2024-01-22T05:13:56.000Z,100460.59
2024-01-22T05:16:23.827Z,100466.34
2024-01-22T05:18:53.128Z,100472.63
2024-01-22T05:21:23.419Z,100485.78
2024-01-22T05:23:50.957Z,100500.88
2024-01-22T05:26:18.299Z,100497.25
2024-01-22T05:28:45.552Z,100494.88
2024-01-22T05:31:13.041Z,100479.84
2024-01-22T05:33:40.459Z,100505.09
2024-01-22T05:36:08.641Z,100488.75
2024-01-22T05:38:35.978Z,100494.19
2024-01-22T05:41:04.164Z,100489.19
2024-01-22T05:43:31.410Z,100483.81
2024-01-22T05:45:58.616Z,100501.47
2024-01-22T05:48:25.984Z,100507.97
2024-01-22T05:50:53.242Z,100525.28
2024-01-22T05:53:20.480Z,100511.22
2024-01-22T05:55:47.731Z,100507.44
2024-01-22T05:58:15.001Z,100487.22
2024-01-22T06:00:42.331Z,100485.03
2024-01-22T06:03:38.700Z,100464.88
2024-01-22T06:06:07.112Z,100464.56
2024-01-22T06:08:34.632Z,100437.63
2024-01-22T06:11:05.858Z,100449.81
2024-01-22T06:13:42.662Z,100464.44
2024-01-22T06:17:19.408Z,100496.66
2024-01-22T06:19:47.591Z,100488.50
2024-01-22T06:22:54.832Z,100513.22
2024-01-22T06:25:22.198Z,100452.09
2024-01-22T06:27:50.787Z,100450.25
2024-01-22T06:30:22.840Z,100442.50
2024-01-22T06:48:09.379Z,100482.47
2024-01-22T06:50:37.175Z,100489.88
2024-01-22T06:53:05.548Z,100509.00
2024-01-22T06:55:33.081Z,100526.97
2024-01-22T06:58:04.359Z,100507.91
2024-01-22T07:00:34.523Z,100460.28
2024-01-22T07:03:01.987Z,100513.19
2024-01-22T07:05:31.114Z,100482.91
2024-01-22T07:08:13.279Z,100518.28
2024-01-22T07:10:42.216Z,100526.78
2024-01-22T07:13:10.520Z,100504.69
2024-01-22T07:15:37.934Z,100491.78
2024-01-22T07:18:05.410Z,100488.34
2024-01-22T07:20:32.892Z,100447.06
2024-01-22T07:23:00.180Z,100418.25
2024-01-22T07:25:27.527Z,100441.78
2024-01-22T07:27:54.657Z,100486.75
2024-01-22T07:30:22.000Z,100460.28
2024-01-22T07:32:49.438Z,100478.00
2024-01-22T07:35:17.125Z,100489.41
2024-01-22T07:37:48.611Z,100472.97
2024-01-22T07:40:16.061Z,100482.97
2024-01-22T07:42:43.763Z,100519.50
2024-01-22T07:45:12.232Z,100469.81
2024-01-22T07:47:44.026Z,100482.25
2024-01-22T07:50:16.201Z,100490.84
2024-01-22T07:52:47.168Z,100477.88
2024-01-22T07:55:19.130Z,100483.13
2024-01-22T07:57:46.695Z,100493.69
2024-01-22T08:00:15.177Z,100484.38
2024-01-22T08:02:42.788Z,100482.66
2024-01-22T08:05:15.012Z,100481.81
2024-01-22T08:07:45.355Z,100501.69
2024-01-22T08:10:14.170Z,100497.34
2024-01-22T08:12:45.192Z,100519.09
2024-01-22T08:15:17.354Z,100462.41
2024-01-22T08:17:48.540Z,100476.34
2024-01-22T08:20:20.724Z,100466.25
2024-01-22T08:22:53.443Z,100472.66
2024-01-22T08:25:29.572Z,100454.59
2024-01-22T08:27:57.645Z,100433.78
2024-01-22T08:30:27.324Z,100440.44
2024-01-22T08:32:55.659Z,100426.19
2024-01-22T08:35:23.739Z,100449.56
2024-01-22T08:37:56.392Z,100444.28
2024-01-22T08:40:24.928Z,100454.00
2024-01-22T08:42:55.089Z,100447.88
2024-01-22T08:45:23.601Z,100421.75
2024-01-22T08:47:51.693Z,100443.53
2024-01-22T08:50:20.559Z,100426.75
2024-01-22T08:52:48.019Z,100436.41
2024-01-22T08:55:20.097Z,100384.00
2024-01-22T08:57:47.687Z,100426.75
2024-01-22T09:00:16.133Z,100422.66
2024-01-22T09:02:44.441Z,100420.56
2024-01-22T09:05:13.584Z,100421.59
2024-01-22T09:07:40.798Z,100398.50
2024-01-22T09:10:08.965Z,100390.75
2024-01-22T09:12:36.495Z,100403.75
2024-01-22T09:15:08.124Z,100426.22
2024-01-22T09:17:35.405Z,100436.72
2024-01-22T09:20:02.637Z,100433.25
2024-01-22T09:22:32.568Z,100484.78
2024-01-22T09:24:59.829Z,100474.47
2024-01-22T09:27:27.004Z,100465.19
2024-01-22T09:29:54.324Z,100439.09
2024-01-22T09:32:21.903Z,100473.81
2024-01-22T09:34:49.342Z,100456.78
2024-01-22T09:37:16.996Z,100477.88
2024-01-22T09:39:45.684Z,100506.31
2024-01-22T09:42:18.638Z,100493.47
2024-01-22T09:44:48.614Z,100494.97
2024-01-22T09:47:16.407Z,100485.91
2024-01-22T09:49:44.295Z,100528.84
2024-01-22T09:52:19.915Z,100493.03
2024-01-22T09:54:47.286Z,100522.44
2024-01-22T09:57:19.368Z,100510.34
2024-01-22T09:59:49.278Z,100493.38
2024-01-22T10:02:17.869Z,100490.34
2024-01-22T10:04:46.052Z,100500.63
2024-01-22T10:07:15.531Z,100513.47
2024-01-22T10:09:46.049Z,100514.19
2024-01-22T10:12:13.454Z,100517.13
2024-01-22T10:14:43.010Z,100504.28
2024-01-22T10:17:21.416Z,100518.84
2024-01-22T10:19:50.680Z,100522.34
2024-01-22T10:22:21.421Z,100518.69
2024-01-22T10:25:04.555Z,100528.06
2024-01-22T10:27:32.369Z,100557.44
2024-01-22T10:30:11.481Z,100533.09
2024-01-22T10:32:39.034Z,100520.88
2024-01-22T10:35:24.006Z,100519.13
2024-01-22T10:38:08.711Z,100518.25
2024-01-22T10:40:36.331Z,100498.72
2024-01-22T10:43:25.854Z,100496.97
2024-01-22T10:45:55.777Z,100505.03
2024-01-22T10:48:38.323Z,100482.88
2024-01-22T10:51:12.545Z,100506.72
2024-01-22T10:53:41.394Z,100518.72
2024-01-22T10:56:27.831Z,100530.16
2024-01-22T10:58:58.476Z,100505.34
2024-01-22T11:01:27.976Z,100515.59
2024-01-22T11:03:59.218Z,100521.16
2024-01-22T11:06:29.622Z,100519.03
2024-01-22T11:08:59.207Z,100525.28
2024-01-22T11:11:30.553Z,100508.81
2024-01-22T11:14:05.866Z,100485.38
2024-01-22T11:16:34.424Z,100482.22
2024-01-22T11:19:09.971Z,100486.41
2024-01-22T11:21:40.300Z,100491.09
2024-01-22T11:24:21.314Z,100492.09
2024-01-22T11:26:53.337Z,100490.25
2024-01-22T11:29:26.507Z,100481.38
2024-01-22T11:31:55.241Z,100510.72
2024-01-22T11:34:48.123Z,100505.00
2024-01-22T11:37:37.747Z,100491.63
2024-01-22T11:40:13.762Z,100499.75
2024-01-22T11:42:41.238Z,100480.13
2024-01-22T11:45:13.357Z,100489.03
2024-01-22T11:47:41.360Z,100491.31
2024-01-22T11:50:10.631Z,100501.81
2024-01-22T11:52:39.759Z,100501.81
2024-01-22T11:55:09.585Z,100489.78
2024-01-22T11:57:40.348Z,100486.13
2024-01-22T12:00:16.305Z,100468.38
2024-01-22T12:02:48.119Z,100470.97
2024-01-22T12:05:21.330Z,100484.06
2024-01-22T12:07:53.878Z,100450.84
2024-01-22T12:10:24.674Z,100451.91
2024-01-22T12:13:10.063Z,100448.72
2024-01-22T12:15:39.940Z,100439.06
2024-01-22T12:18:09.516Z,100436.69
2024-01-22T12:20:38.941Z,100454.25
2024-01-22T12:23:07.122Z,100435.91
2024-01-22T12:32:30.354Z,100418.41
2024-01-22T12:35:04.598Z,100430.41
2024-01-22T12:37:40.669Z,100401.41
2024-01-22T12:40:18.555Z,100420.75
2024-01-22T12:42:58.586Z,100385.72
2024-01-22T12:45:28.195Z,100408.97
2024-01-22T12:48:06.699Z,100406.84
2024-01-22T12:50:37.258Z,100415.19
2024-01-22T12:53:06.640Z,100420.41
2024-01-22T12:55:42.281Z,100401.88
2024-01-22T12:58:13.218Z,100396.91
2024-01-22T13:00:42.237Z,100387.19
2024-01-22T13:03:13.862Z,100387.13
2024-01-22T13:05:42.929Z,100392.44
2024-01-22T13:08:12.923Z,100378.84
2024-01-22T13:10:42.468Z,100330.25
2024-01-22T13:13:13.391Z,100330.13
2024-01-22T13:15:52.783Z,100350.75
2024-01-22T13:18:31.326Z,100348.97
2024-01-22T13:21:02.800Z,100345.78
2024-01-22T13:23:33.978Z,100354.69
2024-01-22T13:26:03.482Z,100360.91
2024-01-22T13:28:33.137Z,100353.31
2024-01-22T13:31:02.734Z,100347.88
2024-01-22T13:33:31.727Z,100341.00
2024-01-22T13:36:01.492Z,100356.53
2024-01-22T13:38:30.944Z,100357.31
2024-01-22T13:40:59.887Z,100337.47
2024-01-22T13:43:29.409Z,100335.13
2024-01-22T13:45:58.734Z,100313.91
2024-01-22T13:48:30.883Z,100312.41
2024-01-22T13:51:03.511Z,100322.34
2024-01-22T13:53:37.869Z,100277.84
2024-01-22T13:56:11.541Z,100264.31
2024-01-22T13:58:39.931Z,100255.16
2024-01-22T14:01:12.267Z,100224.25
2024-01-22T14:03:40.271Z,100238.03
2024-01-22T14:06:11.795Z,100222.78
2024-01-22T14:08:42.937Z,100195.00
2024-01-22T14:11:12.133Z,100233.97
2024-01-22T14:13:39.698Z,100250.25
2024-01-22T14:16:12.406Z,100254.97
2024-01-22T14:18:41.360Z,100264.13
2024-01-22T14:24:35.917Z,100222.44
2024-01-22T14:40:57.972Z,100196.94
2024-01-22T14:43:25.917Z,100226.91
2024-01-22T14:45:54.671Z,100231.97
2024-01-22T14:48:23.502Z,100219.72
2024-01-22T14:50:53.690Z,100224.59
2024-01-22T14:53:22.136Z,100244.00
2024-01-22T14:55:55.765Z,100224.63
2024-01-22T14:58:23.423Z,100228.28
2024-01-22T15:01:08.979Z,100233.25
2024-01-22T15:03:38.415Z,100209.94
2024-01-22T15:06:06.653Z,100223.56
2024-01-22T15:08:51.086Z,100213.09
2024-01-22T15:27:03.095Z,100241.63
2024-01-22T15:29:31.369Z,100244.28
2024-01-22T15:31:59.094Z,100242.00
2024-01-22T15:34:26.905Z,100242.66
2024-01-22T15:36:54.876Z,100258.25
2024-01-22T15:39:27.175Z,100263.22
2024-01-22T15:41:55.086Z,100282.78
2024-01-22T15:44:22.372Z,100249.84
2024-01-22T15:46:49.711Z,100255.38
2024-01-22T15:49:17.516Z,100269.44
2024-01-22T15:51:44.798Z,100265.22
2024-01-22T15:54:12.217Z,100287.28
2024-01-22T15:56:40.108Z,100265.31
2024-01-22T15:59:14.454Z,100260.69
2024-01-22T16:01:42.092Z,100238.38
2024-01-22T16:04:10.024Z,100264.78
2024-01-22T16:06:41.534Z,100282.69
2024-01-22T16:09:11.402Z,100292.09
2024-01-22T16:11:39.826Z,100276.09
2024-01-22T16:14:07.967Z,100293.66
2024-01-22T16:16:35.324Z,100272.25
2024-01-22T16:19:02.814Z,100250.31
2024-01-22T16:21:31.517Z,100295.25
2024-01-22T16:23:59.371Z,100255.31
2024-01-22T16:26:26.750Z,100252.41
2024-01-22T16:28:54.471Z,100236.72
2024-01-22T16:31:21.774Z,100254.47
2024-01-22T16:33:49.246Z,100255.44
2024-01-22T16:36:16.945Z,100260.97
2024-01-22T16:38:45.289Z,100271.94
2024-01-22T16:41:46.968Z,100276.34
2024-01-22T16:44:14.551Z,100276.94
2024-01-22T16:47:27.123Z,100302.59
2024-01-22T16:49:59.603Z,100287.22
2024-01-22T16:52:27.608Z,100292.66
2024-01-22T16:55:16.066Z,100275.97
2024-01-22T16:57:43.271Z,100238.34
2024-01-22T17:00:11.437Z,100206.75
2024-01-22T17:02:38.700Z,100234.69
2024-01-22T17:05:06.968Z,100241.47
2024-01-22T17:07:34.292Z,100253.47
2024-01-22T17:10:01.536Z,100207.78
2024-01-22T17:12:48.775Z,100237.25
2024-01-22T17:15:41.365Z,100237.50
2024-01-22T17:18:14.845Z,100240.16
2024-01-22T17:20:45.554Z,100259.97
2024-01-22T17:23:14.285Z,100259.47
2024-01-22T17:25:41.775Z,100278.28
2024-01-22T17:28:09.547Z,100266.53
2024-01-22T17:30:36.779Z,100261.25
2024-01-22T17:33:04.765Z,100251.09
2024-01-22T17:35:32.344Z,100272.81
2024-01-22T17:38:00.373Z,100258.44
2024-01-22T17:41:04.131Z,100246.16
2024-01-22T17:43:32.207Z,100255.06
2024-01-22T17:46:05.449Z,100260.78
2024-01-22T17:48:32.950Z,100237.28
2024-01-22T17:51:00.840Z,100229.94
2024-01-22T17:53:29.333Z,100237.00
2024-01-22T17:55:57.110Z,100225.28
2024-01-22T17:58:24.474Z,100239.94
2024-01-22T18:00:51.679Z,100235.78
2024-01-22T18:03:19.007Z,100272.84
2024-01-22T18:05:46.309Z,100229.25
2024-01-22T18:08:14.575Z,100260.31
2024-01-22T18:10:41.902Z,100215.91
2024-01-22T18:13:09.146Z,100270.22
2024-01-22T18:15:36.464Z,100225.56
2024-01-22T18:18:04.512Z,100276.47
2024-01-22T18:20:31.925Z,100295.59
2024-01-22T18:22:59.129Z,100297.38
2024-01-22T18:25:26.313Z,100272.56
2024-01-22T18:27:53.472Z,100289.63
2024-01-22T18:30:21.431Z,100260.06
2024-01-22T18:32:48.780Z,100278.13
2024-01-22T18:35:16.315Z,100249.09
2024-01-22T18:37:43.553Z,100286.72
2024-01-22T18:40:11.282Z,100273.16
2024-01-22T18:43:38.440Z,100291.97
2024-01-22T18:46:13.437Z,100240.75
2024-01-22T18:48:43.834Z,100270.53
2024-01-22T18:51:11.561Z,100238.66
2024-01-22T18:53:39.005Z,100229.50
2024-01-22T18:56:06.955Z,100245.44
2024-01-22T18:58:34.649Z,100256.94
2024-01-22T19:01:02.717Z,100234.94
2024-01-22T19:03:33.491Z,100245.69
2024-01-22T19:06:03.470Z,100243.09
2024-01-22T19:08:31.251Z,100249.84
2024-01-22T19:10:58.994Z,100251.44
2024-01-22T19:13:26.493Z,100234.69
2024-01-22T19:15:56.370Z,100266.59
2024-01-22T19:18:24.073Z,100228.72
2024-01-22T19:20:51.632Z,100226.88
2024-01-22T19:23:19.839Z,100233.16
2024-01-22T19:25:47.511Z,100199.22
2024-01-22T19:28:15.216Z,100230.03
2024-01-22T19:30:42.624Z,100180.66
2024-01-22T19:33:10.429Z,100187.97
2024-01-22T19:35:38.038Z,100194.25
2024-01-22T19:38:05.358Z,100193.75
2024-01-22T19:40:34.560Z,100208.63
2024-01-22T19:43:02.794Z,100190.63
2024-01-22T19:45:30.193Z,100185.91
2024-01-22T19:48:00.422Z,100212.03
2024-01-22T19:50:27.820Z,100188.25
2024-01-22T19:52:55.105Z,100197.66
2024-01-22T19:55:22.399Z,100255.13
2024-01-22T19:57:50.035Z,100231.13
2024-01-22T20:00:17.757Z,100241.28
2024-01-22T20:02:47.423Z,100224.06
2024-01-22T20:05:14.752Z,100245.19
2024-01-22T20:07:42.025Z,100267.69
2024-01-22T20:10:09.630Z,100223.28
2024-01-22T20:12:37.906Z,100231.09
2024-01-22T20:15:05.691Z,100250.94
2024-01-22T20:17:33.180Z,100236.81
2024-01-22T20:20:01.656Z,100212.22
2024-01-22T20:22:28.991Z,100207.25
2024-01-22T20:24:59.502Z,100204.94
2024-01-22T20:27:26.859Z,100189.47
2024-01-22T20:29:54.115Z,100194.75
2024-01-22T20:32:21.331Z,100182.72
2024-01-22T20:34:50.215Z,100218.22
2024-01-22T20:37:18.435Z,100220.06
2024-01-22T20:39:45.743Z,100210.13
2024-01-22T20:42:13.029Z,100207.78
2024-01-22T20:44:40.339Z,100205.94
2024-01-22T20:47:07.599Z,100219.00
2024-01-22T20:49:34.857Z,100197.09
2024-01-22T20:52:02.258Z,100191.59
2024-01-22T20:54:30.576Z,100169.38
2024-01-22T20:56:58.165Z,100241.16
2024-01-22T20:59:25.319Z,100158.84
2024-01-22T21:01:52.599Z,100215.56
2024-01-22T21:04:19.890Z,100199.41
2024-01-22T21:06:49.121Z,100214.56
2024-01-22T21:09:17.303Z,100227.09
2024-01-22T21:11:45.203Z,100189.53
2024-01-22T21:14:14.204Z,100208.00
2024-01-22T21:16:43.571Z,100242.56
2024-01-22T21:19:10.896Z,100191.91
2024-01-22T21:21:43.221Z,100212.03
2024-01-22T21:24:11.986Z,100203.09
2024-01-22T21:26:39.261Z,100221.16
2024-01-22T21:29:07.189Z,100227.72
2024-01-22T21:31:37.077Z,100252.50
2024-01-22T21:34:04.358Z,100225.88
2024-01-22T21:36:31.708Z,100217.75
2024-01-22T21:38:58.821Z,100199.19
2024-01-22T21:41:26.267Z,100209.41
2024-01-22T21:43:53.567Z,100239.69
2024-01-22T21:46:23.158Z,100241.78
2024-01-22T21:48:50.981Z,100260.34
2024-01-22T21:51:18.281Z,100253.81
2024-01-22T21:53:46.425Z,100268.19
2024-01-22T21:56:14.986Z,100219.13
2024-01-22T21:58:42.461Z,100239.75
2024-01-22T22:01:09.874Z,100235.81
2024-01-22T22:03:37.660Z,100243.41
2024-01-22T22:06:06.565Z,100243.13
2024-01-22T22:08:35.625Z,100221.66
2024-01-22T22:11:03.941Z,100244.97
2024-01-22T22:13:31.926Z,100237.13
2024-01-22T22:15:59.184Z,100256.19
2024-01-22T22:18:27.016Z,100215.41
2024-01-22T22:20:54.603Z,100225.06
2024-01-22T22:23:21.974Z,100225.03
2024-01-22T22:25:49.556Z,100227.16
2024-01-22T22:28:16.654Z,100214.38
2024-01-22T22:30:43.802Z,100223.25
2024-01-22T22:33:11.494Z,100229.53
2024-01-22T22:35:39.418Z,100227.69
2024-01-22T22:38:07.661Z,100232.13
2024-01-22T22:40:34.832Z,100234.72
2024-01-22T22:43:01.960Z,100237.34
2024-01-22T22:45:29.151Z,100235.81
2024-01-22T22:47:56.394Z,100213.63
2024-01-22T22:50:23.583Z,100238.16
2024-01-22T22:52:50.661Z,100221.94
2024-01-22T22:55:17.948Z,100228.75
2024-01-22T22:57:45.304Z,100235.53
2024-01-22T23:00:13.942Z,100226.88
2024-01-22T23:02:41.781Z,100234.28
2024-01-22T23:05:09.491Z,100217.28
2024-01-22T23:07:36.687Z,100229.00
2024-01-22T23:10:04.191Z,100243.88
2024-01-22T23:12:31.459Z,100211.72
2024-01-22T23:14:58.723Z,100192.91
2024-01-22T23:17:26.196Z,100228.72
2024-01-22T23:19:53.871Z,100211.47
2024-01-22T23:22:21.341Z,100195.75
2024-01-22T23:24:48.564Z,100213.78
2024-01-22T23:27:15.710Z,100176.69
2024-01-22T23:29:42.939Z,100203.88
2024-01-22T23:32:10.949Z,100205.97
2024-01-22T23:34:38.180Z,100198.19
2024-01-22T23:37:05.588Z,100170.19
2024-01-22T23:39:32.831Z,100190.34
2024-01-22T23:42:00.215Z,100172.50
2024-01-22T23:44:27.567Z,100168.84
2024-01-22T23:46:54.882Z,100164.44
2024-01-22T23:49:22.260Z,100190.81
2024-01-22T23:51:49.594Z,100156.59
2024-01-22T23:54:16.778Z,100177.19
2024-01-22T23:56:43.965Z,100165.72
2024-01-22T23:59:11.091Z,100168.84
